Grayland, Washington
Current Conditions -  °F | °C
As of 4:09 PM on Saturday 25 Oct 2014 (Local Time) from KHQM Reporting Station
Light Rain Light Rain  
Wind Chill: 58°   Ceiling: 1300
Heat Index: 58°   Visibility: 1.7mi
Dew Point: 56°   Wind: 30mph
Humidity: 93%   Direction: 180°S
Pressure: 29.19"   Gusts: 46mph
Location:  46.81°N, 124.1°W
Report Text: KHQM 252309Z AUTO 18026G40KT 1 3/4SM -RA BR FEW009 BKN013 OVC028 14/13 A2919 RMK AO2 PK WND 16040/2302 VIS 1 1/4V2 1/2 P0004 T01440133
Loading
Personal Weather Stations






























Interactive Weather Map
Tropical Storm Tracking
New forecast layout! Learn more

10-Day Weather Forecast

Advertisements
Track Severe Weather on mobile